sensor_id;sensor_type;location;lat;lon;timestamp;P1;durP1;ratioP1;P2;durP2;ratioP2
17214;SDS011;8723;51.502;6.918;2022-11-13T00:01:06;22.10;;;19.83;;
17214;SDS011;8723;51.502;6.918;2022-11-13T00:03:33;22.77;;;19.73;;
17214;SDS011;8723;51.502;6.918;2022-11-13T00:06:01;22.08;;;19.60;;
17214;SDS011;8723;51.502;6.918;2022-11-13T00:08:28;24.03;;;21.07;;
17214;SDS011;8723;51.502;6.918;2022-11-13T00:10:58;23.77;;;20.23;;
17214;SDS011;8723;51.502;6.918;2022-11-13T00:13:27;23.52;;;19.95;;
17214;SDS011;8723;51.502;6.918;2022-11-13T00:15:58;24.30;;;21.80;;
17214;SDS011;8723;51.502;6.918;2022-11-13T00:18:25;26.77;;;23.98;;
17214;SDS011;8723;51.502;6.918;2022-11-13T00:20:53;25.35;;;22.60;;
17214;SDS011;8723;51.502;6.918;2022-11-13T00:23:21;22.85;;;20.45;;
17214;SDS011;8723;51.502;6.918;2022-11-13T00:25:48;22.42;;;20.17;;
17214;SDS011;8723;51.502;6.918;2022-11-13T00:28:15;21.73;;;19.37;;
17214;SDS011;8723;51.502;6.918;2022-11-13T00:30:43;21.20;;;19.00;;
17214;SDS011;8723;51.502;6.918;2022-11-13T00:33:10;21.10;;;19.00;;
17214;SDS011;8723;51.502;6.918;2022-11-13T00:35:37;21.23;;;19.15;;
17214;SDS011;8723;51.502;6.918;2022-11-13T00:38:05;21.60;;;19.35;;
17214;SDS011;8723;51.502;6.918;2022-11-13T00:40:32;22.07;;;19.90;;
17214;SDS011;8723;51.502;6.918;2022-11-13T00:42:59;21.95;;;19.73;;
17214;SDS011;8723;51.502;6.918;2022-11-13T00:45:26;21.45;;;19.35;;
17214;SDS011;8723;51.502;6.918;2022-11-13T00:47:54;22.07;;;19.97;;
17214;SDS011;8723;51.502;6.918;2022-11-13T00:50:21;22.92;;;20.63;;
17214;SDS011;8723;51.502;6.918;2022-11-13T00:52:49;22.00;;;19.90;;
17214;SDS011;8723;51.502;6.918;2022-11-13T00:55:16;21.77;;;19.63;;
17214;SDS011;8723;51.502;6.918;2022-11-13T00:57:43;22.10;;;19.83;;
17214;SDS011;8723;51.502;6.918;2022-11-13T01:00:10;21.23;;;19.13;;
17214;SDS011;8723;51.502;6.918;2022-11-13T01:02:38;21.27;;;19.17;;
17214;SDS011;8723;51.502;6.918;2022-11-13T01:05:06;22.40;;;20.13;;
17214;SDS011;8723;51.502;6.918;2022-11-13T01:07:34;21.98;;;19.73;;
17214;SDS011;8723;51.502;6.918;2022-11-13T01:10:02;21.65;;;19.42;;
17214;SDS011;8723;51.502;6.918;2022-11-13T01:12:29;21.25;;;19.25;;
17214;SDS011;8723;51.502;6.918;2022-11-13T01:14:56;20.97;;;18.77;;
17214;SDS011;8723;51.502;6.918;2022-11-13T01:17:24;21.08;;;18.98;;
17214;SDS011;8723;51.502;6.918;2022-11-13T01:19:51;21.02;;;18.83;;
17214;SDS011;8723;51.502;6.918;2022-11-13T01:22:19;21.85;;;19.55;;
17214;SDS011;8723;51.502;6.918;2022-11-13T01:24:46;21.33;;;19.13;;
17214;SDS011;8723;51.502;6.918;2022-11-13T01:27:13;21.90;;;19.67;;
17214;SDS011;8723;51.502;6.918;2022-11-13T01:29:40;21.52;;;19.42;;
17214;SDS011;8723;51.502;6.918;2022-11-13T01:32:08;21.40;;;19.27;;
17214;SDS011;8723;51.502;6.918;2022-11-13T01:34:35;21.23;;;19.23;;
17214;SDS011;8723;51.502;6.918;2022-11-13T01:37:02;21.65;;;19.55;;
17214;SDS011;8723;51.502;6.918;2022-11-13T01:39:30;20.80;;;18.80;;
17214;SDS011;8723;51.502;6.918;2022-11-13T01:41:57;20.60;;;18.60;;
17214;SDS011;8723;51.502;6.918;2022-11-13T01:44:24;20.88;;;18.85;;
17214;SDS011;8723;51.502;6.918;2022-11-13T01:46:52;21.52;;;19.52;;
17214;SDS011;8723;51.502;6.918;2022-11-13T01:49:25;21.38;;;19.48;;
17214;SDS011;8723;51.502;6.918;2022-11-13T01:51:53;21.05;;;19.02;;
17214;SDS011;8723;51.502;6.918;2022-11-13T01:54:23;22.52;;;20.35;;
17214;SDS011;8723;51.502;6.918;2022-11-13T01:56:52;22.00;;;19.80;;
17214;SDS011;8723;51.502;6.918;2022-11-13T01:59:22;22.92;;;20.67;;
17214;SDS011;8723;51.502;6.918;2022-11-13T02:01:50;21.90;;;19.88;;
17214;SDS011;8723;51.502;6.918;2022-11-13T02:04:17;22.20;;;20.17;;
17214;SDS011;8723;51.502;6.918;2022-11-13T02:06:44;21.38;;;19.33;;
17214;SDS011;8723;51.502;6.918;2022-11-13T02:09:13;21.60;;;19.52;;
17214;SDS011;8723;51.502;6.918;2022-11-13T02:11:41;21.95;;;19.75;;
17214;SDS011;8723;51.502;6.918;2022-11-13T02:14:10;21.33;;;19.27;;
17214;SDS011;8723;51.502;6.918;2022-11-13T02:16:38;21.90;;;19.88;;
17214;SDS011;8723;51.502;6.918;2022-11-13T02:19:09;20.85;;;18.90;;
17214;SDS011;8723;51.502;6.918;2022-11-13T02:21:40;22.20;;;19.90;;
17214;SDS011;8723;51.502;6.918;2022-11-13T02:24:15;21.30;;;19.17;;
17214;SDS011;8723;51.502;6.918;2022-11-13T02:26:44;20.77;;;18.77;;
17214;SDS011;8723;51.502;6.918;2022-11-13T02:29:12;21.63;;;19.63;;
17214;SDS011;8723;51.502;6.918;2022-11-13T02:31:39;21.60;;;19.60;;
17214;SDS011;8723;51.502;6.918;2022-11-13T02:34:06;21.88;;;19.75;;
17214;SDS011;8723;51.502;6.918;2022-11-13T02:36:33;21.73;;;19.70;;
17214;SDS011;8723;51.502;6.918;2022-11-13T02:39:02;21.70;;;19.63;;
17214;SDS011;8723;51.502;6.918;2022-11-13T02:41:31;21.23;;;19.30;;
17214;SDS011;8723;51.502;6.918;2022-11-13T02:43:58;21.63;;;19.52;;
17214;SDS011;8723;51.502;6.918;2022-11-13T02:46:25;20.90;;;18.90;;
17214;SDS011;8723;51.502;6.918;2022-11-13T02:48:52;21.33;;;19.33;;
17214;SDS011;8723;51.502;6.918;2022-11-13T02:51:20;21.92;;;19.85;;
17214;SDS011;8723;51.502;6.918;2022-11-13T02:53:47;20.70;;;18.75;;
17214;SDS011;8723;51.502;6.918;2022-11-13T02:56:14;20.85;;;18.92;;
17214;SDS011;8723;51.502;6.918;2022-11-13T02:58:42;21.08;;;19.15;;
17214;SDS011;8723;51.502;6.918;2022-11-13T03:01:09;20.83;;;18.88;;
17214;SDS011;8723;51.502;6.918;2022-11-13T03:03:36;21.02;;;19.13;;
17214;SDS011;8723;51.502;6.918;2022-11-13T03:06:04;20.57;;;18.67;;
17214;SDS011;8723;51.502;6.918;2022-11-13T03:08:31;20.17;;;18.33;;
17214;SDS011;8723;51.502;6.918;2022-11-13T03:10:58;20.77;;;18.77;;
17214;SDS011;8723;51.502;6.918;2022-11-13T03:13:25;20.40;;;18.60;;
17214;SDS011;8723;51.502;6.918;2022-11-13T03:15:54;20.58;;;18.60;;
17214;SDS011;8723;51.502;6.918;2022-11-13T03:18:22;20.48;;;18.38;;
17214;SDS011;8723;51.502;6.918;2022-11-13T03:20:49;19.92;;;18.02;;
17214;SDS011;8723;51.502;6.918;2022-11-13T03:23:18;20.00;;;17.95;;
17214;SDS011;8723;51.502;6.918;2022-11-13T03:25:45;19.87;;;17.97;;
17214;SDS011;8723;51.502;6.918;2022-11-13T03:28:12;21.45;;;19.30;;
17214;SDS011;8723;51.502;6.918;2022-11-13T03:30:39;21.02;;;18.92;;
17214;SDS011;8723;51.502;6.918;2022-11-13T03:33:07;20.53;;;18.33;;
17214;SDS011;8723;51.502;6.918;2022-11-13T03:35:34;19.65;;;17.75;;
17214;SDS011;8723;51.502;6.918;2022-11-13T03:38:01;20.00;;;18.00;;
17214;SDS011;8723;51.502;6.918;2022-11-13T03:40:28;19.75;;;17.88;;
17214;SDS011;8723;51.502;6.918;2022-11-13T03:42:56;20.13;;;18.13;;
17214;SDS011;8723;51.502;6.918;2022-11-13T03:45:23;20.33;;;18.27;;
17214;SDS011;8723;51.502;6.918;2022-11-13T03:47:50;20.38;;;18.27;;
17214;SDS011;8723;51.502;6.918;2022-11-13T03:50:18;19.92;;;17.85;;
17214;SDS011;8723;51.502;6.918;2022-11-13T03:52:45;20.23;;;18.10;;
17214;SDS011;8723;51.502;6.918;2022-11-13T03:55:13;21.87;;;19.70;;
17214;SDS011;8723;51.502;6.918;2022-11-13T03:57:40;21.17;;;19.17;;
17214;SDS011;8723;51.502;6.918;2022-11-13T04:00:07;21.88;;;19.45;;
17214;SDS011;8723;51.502;6.918;2022-11-13T04:02:35;22.55;;;20.35;;
17214;SDS011;8723;51.502;6.918;2022-11-13T04:05:02;22.52;;;20.27;;
17214;SDS011;8723;51.502;6.918;2022-11-13T04:07:30;22.25;;;20.05;;
17214;SDS011;8723;51.502;6.918;2022-11-13T04:09:58;22.70;;;20.20;;
17214;SDS011;8723;51.502;6.918;2022-11-13T04:12:25;21.23;;;19.13;;
17214;SDS011;8723;51.502;6.918;2022-11-13T04:14:52;21.80;;;19.50;;
17214;SDS011;8723;51.502;6.918;2022-11-13T04:17:19;21.20;;;19.05;;
17214;SDS011;8723;51.502;6.918;2022-11-13T04:19:46;22.92;;;20.50;;
17214;SDS011;8723;51.502;6.918;2022-11-13T04:22:13;21.45;;;19.27;;
17214;SDS011;8723;51.502;6.918;2022-11-13T04:24:42;21.02;;;18.95;;
17214;SDS011;8723;51.502;6.918;2022-11-13T04:27:09;21.30;;;19.23;;
17214;SDS011;8723;51.502;6.918;2022-11-13T04:29:36;21.92;;;19.73;;
17214;SDS011;8723;51.502;6.918;2022-11-13T04:32:03;22.67;;;20.37;;
17214;SDS011;8723;51.502;6.918;2022-11-13T04:34:30;22.33;;;20.13;;
17214;SDS011;8723;51.502;6.918;2022-11-13T04:36:57;21.95;;;19.65;;
17214;SDS011;8723;51.502;6.918;2022-11-13T04:39:24;21.65;;;19.40;;
17214;SDS011;8723;51.502;6.918;2022-11-13T04:41:53;21.52;;;19.33;;
17214;SDS011;8723;51.502;6.918;2022-11-13T04:44:38;23.25;;;20.23;;
17214;SDS011;8723;51.502;6.918;2022-11-13T04:47:05;20.75;;;18.55;;
17214;SDS011;8723;51.502;6.918;2022-11-13T04:49:32;21.40;;;19.20;;
17214;SDS011;8723;51.502;6.918;2022-11-13T04:51:59;22.17;;;19.88;;
17214;SDS011;8723;51.502;6.918;2022-11-13T04:54:26;22.65;;;19.60;;
17214;SDS011;8723;51.502;6.918;2022-11-13T04:56:55;22.47;;;20.17;;
17214;SDS011;8723;51.502;6.918;2022-11-13T04:59:22;21.43;;;19.33;;
17214;SDS011;8723;51.502;6.918;2022-11-13T05:01:49;21.77;;;19.58;;
17214;SDS011;8723;51.502;6.918;2022-11-13T05:04:16;25.70;;;23.05;;
17214;SDS011;8723;51.502;6.918;2022-11-13T05:06:43;22.38;;;19.98;;
17214;SDS011;8723;51.502;6.918;2022-11-13T05:09:10;21.50;;;19.45;;
17214;SDS011;8723;51.502;6.918;2022-11-13T05:11:38;21.87;;;19.67;;
17214;SDS011;8723;51.502;6.918;2022-11-13T05:14:06;21.70;;;19.40;;
17214;SDS011;8723;51.502;6.918;2022-11-13T05:16:34;21.58;;;19.48;;
17214;SDS011;8723;51.502;6.918;2022-11-13T05:19:01;21.67;;;19.43;;
17214;SDS011;8723;51.502;6.918;2022-11-13T05:21:31;21.00;;;18.95;;
17214;SDS011;8723;51.502;6.918;2022-11-13T05:23:58;21.33;;;19.13;;
17214;SDS011;8723;51.502;6.918;2022-11-13T05:26:25;21.70;;;19.50;;
17214;SDS011;8723;51.502;6.918;2022-11-13T05:28:55;20.85;;;18.83;;
17214;SDS011;8723;51.502;6.918;2022-11-13T05:31:23;21.85;;;19.65;;
17214;SDS011;8723;51.502;6.918;2022-11-13T05:33:51;20.52;;;18.27;;
17214;SDS011;8723;51.502;6.918;2022-11-13T05:36:18;20.95;;;18.90;;
17214;SDS011;8723;51.502;6.918;2022-11-13T05:38:46;20.30;;;18.38;;
17214;SDS011;8723;51.502;6.918;2022-11-13T05:41:14;20.85;;;18.85;;
17214;SDS011;8723;51.502;6.918;2022-11-13T05:43:41;20.90;;;18.73;;
17214;SDS011;8723;51.502;6.918;2022-11-13T05:46:09;21.00;;;18.80;;
17214;SDS011;8723;51.502;6.918;2022-11-13T05:48:39;20.55;;;18.60;;
17214;SDS011;8723;51.502;6.918;2022-11-13T05:51:07;21.40;;;19.10;;
17214;SDS011;8723;51.502;6.918;2022-11-13T05:53:34;21.15;;;18.98;;
17214;SDS011;8723;51.502;6.918;2022-11-13T05:56:02;20.88;;;18.88;;
17214;SDS011;8723;51.502;6.918;2022-11-13T05:58:29;21.00;;;18.90;;
17214;SDS011;8723;51.502;6.918;2022-11-13T06:01:06;20.55;;;18.55;;
17214;SDS011;8723;51.502;6.918;2022-11-13T06:03:34;20.17;;;18.23;;
17214;SDS011;8723;51.502;6.918;2022-11-13T06:06:02;20.80;;;18.80;;
17214;SDS011;8723;51.502;6.918;2022-11-13T06:08:29;19.90;;;17.90;;
17214;SDS011;8723;51.502;6.918;2022-11-13T06:10:57;19.83;;;17.90;;
17214;SDS011;8723;51.502;6.918;2022-11-13T06:13:24;20.02;;;17.95;;
17214;SDS011;8723;51.502;6.918;2022-11-13T06:15:51;19.73;;;17.77;;
17214;SDS011;8723;51.502;6.918;2022-11-13T06:18:22;18.67;;;16.80;;
17214;SDS011;8723;51.502;6.918;2022-11-13T06:20:49;19.98;;;18.00;;
17214;SDS011;8723;51.502;6.918;2022-11-13T06:23:17;19.20;;;17.20;;
17214;SDS011;8723;51.502;6.918;2022-11-13T06:25:45;18.92;;;17.02;;
17214;SDS011;8723;51.502;6.918;2022-11-13T06:28:12;18.42;;;16.70;;
17214;SDS011;8723;51.502;6.918;2022-11-13T06:30:39;19.85;;;17.95;;
17214;SDS011;8723;51.502;6.918;2022-11-13T06:33:06;19.00;;;17.10;;
17214;SDS011;8723;51.502;6.918;2022-11-13T06:35:33;19.03;;;17.20;;
17214;SDS011;8723;51.502;6.918;2022-11-13T06:38:00;18.05;;;16.35;;
17214;SDS011;8723;51.502;6.918;2022-11-13T06:40:29;18.15;;;16.38;;
17214;SDS011;8723;51.502;6.918;2022-11-13T06:42:56;18.60;;;16.73;;
17214;SDS011;8723;51.502;6.918;2022-11-13T06:45:23;18.70;;;16.90;;
17214;SDS011;8723;51.502;6.918;2022-11-13T06:47:50;17.88;;;16.08;;
17214;SDS011;8723;51.502;6.918;2022-11-13T06:50:17;18.10;;;16.23;;
17214;SDS011;8723;51.502;6.918;2022-11-13T06:52:44;17.65;;;15.98;;
17214;SDS011;8723;51.502;6.918;2022-11-13T06:55:11;17.30;;;15.60;;
17214;SDS011;8723;51.502;6.918;2022-11-13T06:57:39;19.80;;;17.90;;
17214;SDS011;8723;51.502;6.918;2022-11-13T07:00:07;19.42;;;17.45;;
17214;SDS011;8723;51.502;6.918;2022-11-13T07:02:34;18.88;;;16.98;;
17214;SDS011;8723;51.502;6.918;2022-11-13T07:05:02;19.38;;;17.58;;
17214;SDS011;8723;51.502;6.918;2022-11-13T07:07:29;18.27;;;16.48;;
17214;SDS011;8723;51.502;6.918;2022-11-13T07:09:56;17.60;;;15.90;;
17214;SDS011;8723;51.502;6.918;2022-11-13T07:12:23;18.63;;;16.73;;
17214;SDS011;8723;51.502;6.918;2022-11-13T07:14:51;19.58;;;17.58;;
17214;SDS011;8723;51.502;6.918;2022-11-13T07:17:18;40.55;;;36.45;;
17214;SDS011;8723;51.502;6.918;2022-11-13T07:19:45;25.15;;;22.65;;
17214;SDS011;8723;51.502;6.918;2022-11-13T07:22:13;26.80;;;24.25;;
17214;SDS011;8723;51.502;6.918;2022-11-13T07:24:40;30.45;;;27.52;;
17214;SDS011;8723;51.502;6.918;2022-11-13T07:27:07;28.35;;;25.58;;
17214;SDS011;8723;51.502;6.918;2022-11-13T07:29:34;21.67;;;19.47;;
17214;SDS011;8723;51.502;6.918;2022-11-13T07:32:04;19.23;;;17.33;;
17214;SDS011;8723;51.502;6.918;2022-11-13T07:34:31;18.38;;;16.58;;
17214;SDS011;8723;51.502;6.918;2022-11-13T07:36:58;18.88;;;16.98;;
17214;SDS011;8723;51.502;6.918;2022-11-13T07:39:25;18.58;;;16.77;;
17214;SDS011;8723;51.502;6.918;2022-11-13T07:41:52;18.33;;;16.52;;
17214;SDS011;8723;51.502;6.918;2022-11-13T07:44:20;18.73;;;16.98;;
17214;SDS011;8723;51.502;6.918;2022-11-13T07:46:47;18.48;;;16.58;;
17214;SDS011;8723;51.502;6.918;2022-11-13T07:49:15;19.38;;;17.38;;
17214;SDS011;8723;51.502;6.918;2022-11-13T07:51:42;20.17;;;18.15;;
17214;SDS011;8723;51.502;6.918;2022-11-13T07:54:09;19.93;;;18.00;;
17214;SDS011;8723;51.502;6.918;2022-11-13T07:56:37;18.83;;;17.02;;
17214;SDS011;8723;51.502;6.918;2022-11-13T07:59:04;20.13;;;18.25;;
17214;SDS011;8723;51.502;6.918;2022-11-13T08:01:31;21.98;;;19.88;;
17214;SDS011;8723;51.502;6.918;2022-11-13T08:03:58;22.05;;;19.98;;
17214;SDS011;8723;51.502;6.918;2022-11-13T08:06:26;21.75;;;19.70;;
17214;SDS011;8723;51.502;6.918;2022-11-13T08:08:53;20.70;;;18.75;;
17214;SDS011;8723;51.502;6.918;2022-11-13T08:11:21;26.40;;;23.75;;
17214;SDS011;8723;51.502;6.918;2022-11-13T08:13:48;48.92;;;42.10;;
17214;SDS011;8723;51.502;6.918;2022-11-13T08:16:15;44.10;;;37.70;;
17214;SDS011;8723;51.502;6.918;2022-11-13T08:18:42;30.73;;;27.45;;
17214;SDS011;8723;51.502;6.918;2022-11-13T08:21:09;24.70;;;22.20;;
17214;SDS011;8723;51.502;6.918;2022-11-13T08:23:37;23.33;;;21.02;;
17214;SDS011;8723;51.502;6.918;2022-11-13T08:26:06;21.67;;;19.67;;
17214;SDS011;8723;51.502;6.918;2022-11-13T08:28:33;20.48;;;18.48;;
17214;SDS011;8723;51.502;6.918;2022-11-13T08:31:01;20.60;;;18.60;;
17214;SDS011;8723;51.502;6.918;2022-11-13T08:33:29;20.88;;;19.00;;
17214;SDS011;8723;51.502;6.918;2022-11-13T08:35:56;20.63;;;18.73;;
17214;SDS011;8723;51.502;6.918;2022-11-13T08:38:24;19.00;;;17.25;;
17214;SDS011;8723;51.502;6.918;2022-11-13T08:40:54;20.65;;;18.70;;
17214;SDS011;8723;51.502;6.918;2022-11-13T08:43:22;19.20;;;17.40;;
17214;SDS011;8723;51.502;6.918;2022-11-13T08:45:49;21.52;;;19.55;;
17214;SDS011;8723;51.502;6.918;2022-11-13T08:48:16;19.35;;;17.38;;
17214;SDS011;8723;51.502;6.918;2022-11-13T08:50:43;20.77;;;18.87;;
17214;SDS011;8723;51.502;6.918;2022-11-13T08:53:10;21.77;;;19.85;;
17214;SDS011;8723;51.502;6.918;2022-11-13T08:55:37;22.23;;;20.13;;
17214;SDS011;8723;51.502;6.918;2022-11-13T08:58:06;20.40;;;18.50;;
17214;SDS011;8723;51.502;6.918;2022-11-13T09:00:33;21.87;;;19.80;;
17214;SDS011;8723;51.502;6.918;2022-11-13T09:03:00;20.63;;;18.83;;
17214;SDS011;8723;51.502;6.918;2022-11-13T09:05:27;21.42;;;19.42;;
17214;SDS011;8723;51.502;6.918;2022-11-13T09:07:55;21.20;;;19.20;;
17214;SDS011;8723;51.502;6.918;2022-11-13T09:10:22;20.30;;;18.48;;
17214;SDS011;8723;51.502;6.918;2022-11-13T09:12:54;19.95;;;18.05;;
17214;SDS011;8723;51.502;6.918;2022-11-13T09:15:23;17.70;;;16.20;;
17214;SDS011;8723;51.502;6.918;2022-11-13T09:17:50;19.77;;;17.97;;
17214;SDS011;8723;51.502;6.918;2022-11-13T09:20:17;15.32;;;14.02;;
17214;SDS011;8723;51.502;6.918;2022-11-13T09:22:44;16.38;;;14.98;;
17214;SDS011;8723;51.502;6.918;2022-11-13T09:25:11;18.23;;;16.63;;
17214;SDS011;8723;51.502;6.918;2022-11-13T09:27:39;16.33;;;14.93;;
17214;SDS011;8723;51.502;6.918;2022-11-13T09:30:06;17.95;;;16.25;;
17214;SDS011;8723;51.502;6.918;2022-11-13T09:32:35;16.02;;;14.63;;
17214;SDS011;8723;51.502;6.918;2022-11-13T09:35:02;15.40;;;14.00;;
17214;SDS011;8723;51.502;6.918;2022-11-13T09:37:29;16.98;;;15.48;;
17214;SDS011;8723;51.502;6.918;2022-11-13T09:39:56;15.13;;;13.73;;
17214;SDS011;8723;51.502;6.918;2022-11-13T09:42:24;15.20;;;13.77;;
17214;SDS011;8723;51.502;6.918;2022-11-13T09:44:52;15.07;;;13.77;;
17214;SDS011;8723;51.502;6.918;2022-11-13T09:47:22;14.68;;;13.38;;
17214;SDS011;8723;51.502;6.918;2022-11-13T09:49:53;13.52;;;12.40;;
17214;SDS011;8723;51.502;6.918;2022-11-13T09:52:25;11.82;;;10.75;;
17214;SDS011;8723;51.502;6.918;2022-11-13T09:54:55;16.38;;;14.88;;
17214;SDS011;8723;51.502;6.918;2022-11-13T09:57:25;13.45;;;12.25;;
17214;SDS011;8723;51.502;6.918;2022-11-13T09:59:58;13.73;;;12.52;;
17214;SDS011;8723;51.502;6.918;2022-11-13T10:02:30;12.90;;;11.80;;
17214;SDS011;8723;51.502;6.918;2022-11-13T10:05:02;12.18;;;11.07;;
17214;SDS011;8723;51.502;6.918;2022-11-13T10:07:33;12.48;;;11.27;;
17214;SDS011;8723;51.502;6.918;2022-11-13T10:10:28;12.70;;;11.50;;
17214;SDS011;8723;51.502;6.918;2022-11-13T10:12:58;12.80;;;11.50;;
17214;SDS011;8723;51.502;6.918;2022-11-13T10:15:26;13.18;;;11.93;;
17214;SDS011;8723;51.502;6.918;2022-11-13T10:17:54;13.27;;;12.07;;
17214;SDS011;8723;51.502;6.918;2022-11-13T10:20:24;14.20;;;12.70;;
17214;SDS011;8723;51.502;6.918;2022-11-13T10:22:55;15.18;;;13.57;;
17214;SDS011;8723;51.502;6.918;2022-11-13T10:25:26;15.43;;;13.90;;
17214;SDS011;8723;51.502;6.918;2022-11-13T10:27:55;14.93;;;12.85;;
17214;SDS011;8723;51.502;6.918;2022-11-13T10:30:23;13.88;;;12.45;;
17214;SDS011;8723;51.502;6.918;2022-11-13T10:32:50;13.32;;;12.00;;
17214;SDS011;8723;51.502;6.918;2022-11-13T10:38:02;12.68;;;10.90;;
17214;SDS011;8723;51.502;6.918;2022-11-13T10:40:30;12.63;;;11.32;;
17214;SDS011;8723;51.502;6.918;2022-11-13T10:43:03;12.23;;;10.90;;
17214;SDS011;8723;51.502;6.918;2022-11-13T10:45:30;13.07;;;11.77;;
17214;SDS011;8723;51.502;6.918;2022-11-13T10:47:58;13.90;;;12.50;;
17214;SDS011;8723;51.502;6.918;2022-11-13T10:50:26;14.23;;;12.57;;
17214;SDS011;8723;51.502;6.918;2022-11-13T10:52:53;13.40;;;12.07;;
17214;SDS011;8723;51.502;6.918;2022-11-13T10:55:23;11.90;;;10.60;;
17214;SDS011;8723;51.502;6.918;2022-11-13T10:57:55;13.95;;;12.55;;
17214;SDS011;8723;51.502;6.918;2022-11-13T11:00:24;13.10;;;11.80;;
17214;SDS011;8723;51.502;6.918;2022-11-13T11:02:51;11.97;;;10.77;;
17214;SDS011;8723;51.502;6.918;2022-11-13T11:05:19;10.95;;;9.85;;
17214;SDS011;8723;51.502;6.918;2022-11-13T11:07:47;9.75;;;8.75;;
17214;SDS011;8723;51.502;6.918;2022-11-13T11:10:18;9.23;;;8.23;;
17214;SDS011;8723;51.502;6.918;2022-11-13T11:12:51;8.45;;;7.55;;
17214;SDS011;8723;51.502;6.918;2022-11-13T11:15:23;8.82;;;7.55;;
17214;SDS011;8723;51.502;6.918;2022-11-13T11:17:51;7.03;;;6.43;;
17214;SDS011;8723;51.502;6.918;2022-11-13T11:20:23;7.80;;;7.10;;
17214;SDS011;8723;51.502;6.918;2022-11-13T11:22:52;7.30;;;6.70;;
17214;SDS011;8723;51.502;6.918;2022-11-13T11:25:23;7.80;;;7.10;;
17214;SDS011;8723;51.502;6.918;2022-11-13T11:27:55;7.57;;;6.88;;
17214;SDS011;8723;51.502;6.918;2022-11-13T11:30:23;7.60;;;6.90;;
17214;SDS011;8723;51.502;6.918;2022-11-13T11:32:53;7.15;;;6.50;;
17214;SDS011;8723;51.502;6.918;2022-11-13T11:35:23;6.65;;;6.10;;
17214;SDS011;8723;51.502;6.918;2022-11-13T11:37:53;6.85;;;6.25;;
17214;SDS011;8723;51.502;6.918;2022-11-13T11:40:24;6.63;;;6.03;;
17214;SDS011;8723;51.502;6.918;2022-11-13T11:42:54;6.70;;;6.10;;
17214;SDS011;8723;51.502;6.918;2022-11-13T11:45:24;7.57;;;6.97;;
17214;SDS011;8723;51.502;6.918;2022-11-13T11:47:53;7.50;;;6.90;;
17214;SDS011;8723;51.502;6.918;2022-11-13T11:50:22;7.13;;;6.53;;
17214;SDS011;8723;51.502;6.918;2022-11-13T11:52:55;6.15;;;5.65;;
17214;SDS011;8723;51.502;6.918;2022-11-13T11:55:30;6.35;;;5.75;;
17214;SDS011;8723;51.502;6.918;2022-11-13T11:58:02;6.15;;;5.65;;
17214;SDS011;8723;51.502;6.918;2022-11-13T12:00:33;6.17;;;5.57;;
17214;SDS011;8723;51.502;6.918;2022-11-13T12:03:19;6.00;;;5.40;;
17214;SDS011;8723;51.502;6.918;2022-11-13T12:05:56;5.65;;;5.25;;
17214;SDS011;8723;51.502;6.918;2022-11-13T12:08:27;5.57;;;5.07;;
17214;SDS011;8723;51.502;6.918;2022-11-13T12:10:56;5.78;;;5.22;;
17214;SDS011;8723;51.502;6.918;2022-11-13T12:13:27;6.03;;;5.40;;
17214;SDS011;8723;51.502;6.918;2022-11-13T12:15:59;5.70;;;5.20;;
17214;SDS011;8723;51.502;6.918;2022-11-13T12:18:30;6.20;;;5.60;;
17214;SDS011;8723;51.502;6.918;2022-11-13T12:21:04;6.35;;;5.75;;
17214;SDS011;8723;51.502;6.918;2022-11-13T12:23:35;6.72;;;5.85;;
17214;SDS011;8723;51.502;6.918;2022-11-13T12:26:07;7.70;;;6.05;;
17214;SDS011;8723;51.502;6.918;2022-11-13T12:28:39;5.40;;;4.90;;
17214;SDS011;8723;51.502;6.918;2022-11-13T12:31:13;5.50;;;5.00;;
17214;SDS011;8723;51.502;6.918;2022-11-13T12:33:42;5.45;;;4.88;;
17214;SDS011;8723;51.502;6.918;2022-11-13T12:36:11;5.97;;;5.38;;
17214;SDS011;8723;51.502;6.918;2022-11-13T12:38:41;6.78;;;5.57;;
17214;SDS011;8723;51.502;6.918;2022-11-13T12:41:14;7.88;;;5.60;;
17214;SDS011;8723;51.502;6.918;2022-11-13T12:46:38;5.80;;;4.87;;
17214;SDS011;8723;51.502;6.918;2022-11-13T12:49:22;5.75;;;5.15;;
17214;SDS011;8723;51.502;6.918;2022-11-13T12:51:52;4.82;;;4.35;;
17214;SDS011;8723;51.502;6.918;2022-11-13T12:54:23;5.13;;;4.60;;
17214;SDS011;8723;51.502;6.918;2022-11-13T12:56:51;4.30;;;3.90;;
17214;SDS011;8723;51.502;6.918;2022-11-13T12:59:29;4.18;;;3.83;;
17214;SDS011;8723;51.502;6.918;2022-11-13T13:02:00;4.30;;;3.90;;
17214;SDS011;8723;51.502;6.918;2022-11-13T13:04:44;3.88;;;3.55;;
17214;SDS011;8723;51.502;6.918;2022-11-13T13:07:22;4.63;;;3.50;;
17214;SDS011;8723;51.502;6.918;2022-11-13T13:09:56;4.10;;;3.70;;
17214;SDS011;8723;51.502;6.918;2022-11-13T13:12:33;3.58;;;3.28;;
17214;SDS011;8723;51.502;6.918;2022-11-13T13:15:07;3.58;;;3.28;;
17214;SDS011;8723;51.502;6.918;2022-11-13T13:17:38;3.45;;;3.15;;
17214;SDS011;8723;51.502;6.918;2022-11-13T13:20:23;3.70;;;3.40;;
17214;SDS011;8723;51.502;6.918;2022-11-13T13:22:54;3.75;;;3.30;;
17214;SDS011;8723;51.502;6.918;2022-11-13T13:25:23;3.20;;;3.00;;
17214;SDS011;8723;51.502;6.918;2022-11-13T13:27:54;4.22;;;3.17;;
17214;SDS011;8723;51.502;6.918;2022-11-13T13:30:22;3.30;;;3.00;;
17214;SDS011;8723;51.502;6.918;2022-11-13T13:32:53;3.07;;;2.80;;
17214;SDS011;8723;51.502;6.918;2022-11-13T13:35:25;4.65;;;4.20;;
17214;SDS011;8723;51.502;6.918;2022-11-13T13:37:55;4.15;;;3.80;;
17214;SDS011;8723;51.502;6.918;2022-11-13T13:40:27;4.43;;;4.03;;
17214;SDS011;8723;51.502;6.918;2022-11-13T13:43:08;4.15;;;3.85;;
17214;SDS011;8723;51.502;6.918;2022-11-13T13:45:42;3.65;;;3.35;;
17214;SDS011;8723;51.502;6.918;2022-11-13T13:48:18;4.47;;;4.00;;
17214;SDS011;8723;51.502;6.918;2022-11-13T13:50:45;4.03;;;3.63;;
17214;SDS011;8723;51.502;6.918;2022-11-13T13:53:13;3.53;;;3.30;;
17214;SDS011;8723;51.502;6.918;2022-11-13T13:55:43;4.00;;;3.70;;
17214;SDS011;8723;51.502;6.918;2022-11-13T13:58:11;3.78;;;3.40;;
17214;SDS011;8723;51.502;6.918;2022-11-13T14:00:39;3.70;;;3.40;;
17214;SDS011;8723;51.502;6.918;2022-11-13T14:03:15;3.65;;;3.35;;
17214;SDS011;8723;51.502;6.918;2022-11-13T14:05:44;3.42;;;3.15;;
17214;SDS011;8723;51.502;6.918;2022-11-13T14:08:15;3.70;;;3.40;;
17214;SDS011;8723;51.502;6.918;2022-11-13T14:10:42;3.60;;;3.28;;
17214;SDS011;8723;51.502;6.918;2022-11-13T14:13:10;3.88;;;3.50;;
17214;SDS011;8723;51.502;6.918;2022-11-13T14:15:38;3.50;;;3.20;;
17214;SDS011;8723;51.502;6.918;2022-11-13T14:18:10;3.73;;;3.43;;
17214;SDS011;8723;51.502;6.918;2022-11-13T14:20:41;3.88;;;3.58;;
17214;SDS011;8723;51.502;6.918;2022-11-13T14:23:09;4.13;;;3.22;;
17214;SDS011;8723;51.502;6.918;2022-11-13T14:25:37;3.10;;;2.80;;
17214;SDS011;8723;51.502;6.918;2022-11-13T14:28:10;2.90;;;2.70;;
17214;SDS011;8723;51.502;6.918;2022-11-13T14:30:38;2.77;;;2.57;;
17214;SDS011;8723;51.502;6.918;2022-11-13T14:33:07;3.35;;;2.63;;
17214;SDS011;8723;51.502;6.918;2022-11-13T14:35:34;2.80;;;2.60;;
17214;SDS011;8723;51.502;6.918;2022-11-13T14:38:03;3.28;;;2.97;;
17214;SDS011;8723;51.502;6.918;2022-11-13T14:40:30;3.05;;;2.85;;
17214;SDS011;8723;51.502;6.918;2022-11-13T14:43:00;2.90;;;2.70;;
17214;SDS011;8723;51.502;6.918;2022-11-13T14:45:28;3.35;;;3.05;;
17214;SDS011;8723;51.502;6.918;2022-11-13T14:47:56;3.25;;;3.05;;
17214;SDS011;8723;51.502;6.918;2022-11-13T14:50:25;3.70;;;3.30;;
17214;SDS011;8723;51.502;6.918;2022-11-13T14:52:56;3.50;;;3.20;;
17214;SDS011;8723;51.502;6.918;2022-11-13T14:55:26;3.70;;;3.40;;